sensor_id;sensor_type;location;lat;lon;timestamp;pressure;altitude;pressure_sealevel;temperature;humidity
52957;BME280;38819;42.692;23.342;2023-02-04T00:01:38;95117.97;;;2.57;73.38
52957;BME280;38819;42.692;23.342;2023-02-04T00:04:04;95117.91;;;2.52;73.39
52957;BME280;38819;42.692;23.342;2023-02-04T00:06:29;95110.06;;;2.45;73.82
52957;BME280;38819;42.692;23.342;2023-02-04T00:08:54;95112.25;;;2.31;74.56
52957;BME280;38819;42.692;23.342;2023-02-04T00:11:20;95107.31;;;2.40;74.47
52957;BME280;38819;42.692;23.342;2023-02-04T00:13:45;95101.19;;;2.39;74.34
52957;BME280;38819;42.692;23.342;2023-02-04T00:16:11;95093.53;;;2.26;74.94
52957;BME280;38819;42.692;23.342;2023-02-04T00:18:36;95087.25;;;2.32;74.52
52957;BME280;38819;42.692;23.342;2023-02-04T00:21:01;95087.53;;;2.53;74.08
52957;BME280;38819;42.692;23.342;2023-02-04T00:23:27;95098.19;;;2.53;73.89
52957;BME280;38819;42.692;23.342;2023-02-04T00:25:52;95095.03;;;2.56;73.50
52957;BME280;38819;42.692;23.342;2023-02-04T00:28:18;95082.50;;;2.56;73.34
52957;BME280;38819;42.692;23.342;2023-02-04T00:30:43;95078.81;;;2.57;73.25
52957;BME280;38819;42.692;23.342;2023-02-04T00:33:09;95070.97;;;2.51;73.41
52957;BME280;38819;42.692;23.342;2023-02-04T00:35:34;95080.09;;;2.55;72.93
52957;BME280;38819;42.692;23.342;2023-02-04T00:38:02;95084.75;;;2.65;73.03
52957;BME280;38819;42.692;23.342;2023-02-04T00:40:28;95076.75;;;2.65;72.74
52957;BME280;38819;42.692;23.342;2023-02-04T00:42:54;95079.06;;;2.56;72.56
52957;BME280;38819;42.692;23.342;2023-02-04T00:45:19;95066.31;;;2.41;73.04
52957;BME280;38819;42.692;23.342;2023-02-04T00:47:45;95068.06;;;2.35;73.42
52957;BME280;38819;42.692;23.342;2023-02-04T00:50:10;95071.53;;;2.53;72.95
52957;BME280;38819;42.692;23.342;2023-02-04T00:52:36;95060.88;;;2.53;72.93
52957;BME280;38819;42.692;23.342;2023-02-04T00:55:01;95069.50;;;2.60;71.84
52957;BME280;38819;42.692;23.342;2023-02-04T00:57:26;95058.91;;;2.65;71.65
52957;BME280;38819;42.692;23.342;2023-02-04T00:59:52;95058.16;;;2.70;71.34
52957;BME280;38819;42.692;23.342;2023-02-04T01:02:17;95046.34;;;2.83;71.24
52957;BME280;38819;42.692;23.342;2023-02-04T01:04:43;95055.25;;;2.93;70.58
52957;BME280;38819;42.692;23.342;2023-02-04T01:07:08;95038.63;;;2.86;70.42
52957;BME280;38819;42.692;23.342;2023-02-04T01:09:33;95030.22;;;2.94;70.16
52957;BME280;38819;42.692;23.342;2023-02-04T01:11:59;95038.38;;;3.10;69.63
52957;BME280;38819;42.692;23.342;2023-02-04T01:14:24;95007.16;;;3.10;69.27
52957;BME280;38819;42.692;23.342;2023-02-04T01:16:50;95016.28;;;3.14;69.09
52957;BME280;38819;42.692;23.342;2023-02-04T01:19:15;95008.53;;;3.13;68.89
52957;BME280;38819;42.692;23.342;2023-02-04T01:21:41;95017.09;;;3.15;68.83
52957;BME280;38819;42.692;23.342;2023-02-04T01:24:07;95014.06;;;3.06;69.21
52957;BME280;38819;42.692;23.342;2023-02-04T01:26:32;95012.19;;;3.07;69.16
52957;BME280;38819;42.692;23.342;2023-02-04T01:28:57;95005.41;;;3.21;69.13
52957;BME280;38819;42.692;23.342;2023-02-04T01:31:23;95004.16;;;3.29;68.69
52957;BME280;38819;42.692;23.342;2023-02-04T01:33:49;94993.88;;;3.15;69.14
52957;BME280;38819;42.692;23.342;2023-02-04T01:36:14;94987.94;;;3.08;68.99
52957;BME280;38819;42.692;23.342;2023-02-04T01:38:46;94996.44;;;3.05;69.19
52957;BME280;38819;42.692;23.342;2023-02-04T01:41:12;94982.69;;;3.19;68.71
52957;BME280;38819;42.692;23.342;2023-02-04T01:43:37;94972.94;;;3.29;68.57
52957;BME280;38819;42.692;23.342;2023-02-04T01:46:03;94980.16;;;3.34;68.33
52957;BME280;38819;42.692;23.342;2023-02-04T01:48:29;94978.06;;;3.36;68.28
52957;BME280;38819;42.692;23.342;2023-02-04T01:51:06;94964.44;;;3.32;68.36
52957;BME280;38819;42.692;23.342;2023-02-04T01:53:33;94967.78;;;3.50;67.82
52957;BME280;38819;42.692;23.342;2023-02-04T01:55:59;94967.81;;;3.55;67.68
52957;BME280;38819;42.692;23.342;2023-02-04T01:58:25;94961.66;;;3.49;67.96
52957;BME280;38819;42.692;23.342;2023-02-04T02:00:50;94963.03;;;3.57;68.23
52957;BME280;38819;42.692;23.342;2023-02-04T02:03:16;94956.09;;;3.56;68.42
52957;BME280;38819;42.692;23.342;2023-02-04T02:05:47;94955.09;;;3.67;68.08
52957;BME280;38819;42.692;23.342;2023-02-04T02:08:14;94975.13;;;3.65;68.48
52957;BME280;38819;42.692;23.342;2023-02-04T02:10:42;94979.41;;;3.66;68.53
52957;BME280;38819;42.692;23.342;2023-02-04T02:13:11;94969.31;;;3.73;68.51
52957;BME280;38819;42.692;23.342;2023-02-04T02:15:38;94952.50;;;3.73;68.52
52957;BME280;38819;42.692;23.342;2023-02-04T02:18:03;94955.06;;;3.62;68.75
52957;BME280;38819;42.692;23.342;2023-02-04T02:20:29;94951.63;;;3.67;68.60
52957;BME280;38819;42.692;23.342;2023-02-04T02:25:39;94941.53;;;3.74;68.43
52957;BME280;38819;42.692;23.342;2023-02-04T02:28:10;94929.00;;;3.75;68.21
52957;BME280;38819;42.692;23.342;2023-02-04T02:30:36;94925.72;;;3.67;68.30
52957;BME280;38819;42.692;23.342;2023-02-04T02:33:02;94909.41;;;3.64;67.93
52957;BME280;38819;42.692;23.342;2023-02-04T02:35:28;94894.72;;;3.61;68.14
52957;BME280;38819;42.692;23.342;2023-02-04T02:37:53;94886.72;;;3.66;67.86
52957;BME280;38819;42.692;23.342;2023-02-04T02:40:19;94885.72;;;3.73;67.76
52957;BME280;38819;42.692;23.342;2023-02-04T02:42:47;94879.06;;;3.80;67.59
52957;BME280;38819;42.692;23.342;2023-02-04T02:45:25;94869.47;;;3.79;67.31
52957;BME280;38819;42.692;23.342;2023-02-04T02:47:51;94868.06;;;3.71;67.29
52957;BME280;38819;42.692;23.342;2023-02-04T02:50:22;94871.56;;;3.77;67.11
52957;BME280;38819;42.692;23.342;2023-02-04T02:52:49;94880.66;;;3.76;66.88
52957;BME280;38819;42.692;23.342;2023-02-04T02:55:16;94867.78;;;3.68;67.20
52957;BME280;38819;42.692;23.342;2023-02-04T02:57:46;94858.13;;;3.62;67.08
52957;BME280;38819;42.692;23.342;2023-02-04T03:00:21;94872.88;;;3.69;67.15
52957;BME280;38819;42.692;23.342;2023-02-04T03:05:29;94874.41;;;3.60;67.35
52957;BME280;38819;42.692;23.342;2023-02-04T03:07:55;94865.00;;;3.52;67.67
52957;BME280;38819;42.692;23.342;2023-02-04T03:10:20;94872.50;;;3.56;67.75
52957;BME280;38819;42.692;23.342;2023-02-04T03:12:46;94871.97;;;3.59;67.43
52957;BME280;38819;42.692;23.342;2023-02-04T03:15:12;94874.44;;;3.65;67.24
52957;BME280;38819;42.692;23.342;2023-02-04T03:17:39;94883.28;;;3.71;67.10
52957;BME280;38819;42.692;23.342;2023-02-04T03:20:05;94883.06;;;3.78;66.51
52957;BME280;38819;42.692;23.342;2023-02-04T03:22:31;94876.94;;;3.82;66.49
52957;BME280;38819;42.692;23.342;2023-02-04T03:24:57;94861.22;;;3.86;66.39
52957;BME280;38819;42.692;23.342;2023-02-04T03:27:23;94844.09;;;3.82;66.54
52957;BME280;38819;42.692;23.342;2023-02-04T03:29:49;94862.00;;;3.86;66.56
52957;BME280;38819;42.692;23.342;2023-02-04T03:32:15;94860.63;;;3.79;66.43
52957;BME280;38819;42.692;23.342;2023-02-04T03:34:40;94858.22;;;3.77;66.34
52957;BME280;38819;42.692;23.342;2023-02-04T03:37:07;94863.28;;;3.79;66.57
52957;BME280;38819;42.692;23.342;2023-02-04T03:39:33;94845.44;;;3.84;66.69
52957;BME280;38819;42.692;23.342;2023-02-04T03:41:58;94849.19;;;3.88;65.94
52957;BME280;38819;42.692;23.342;2023-02-04T03:44:24;94850.25;;;3.87;66.05
52957;BME280;38819;42.692;23.342;2023-02-04T03:46:53;94849.44;;;3.87;66.20
52957;BME280;38819;42.692;23.342;2023-02-04T03:49:23;94829.44;;;3.89;66.16
52957;BME280;38819;42.692;23.342;2023-02-04T03:51:49;94834.28;;;3.93;66.52
52957;BME280;38819;42.692;23.342;2023-02-04T03:54:14;94844.91;;;3.87;66.57
52957;BME280;38819;42.692;23.342;2023-02-04T03:56:40;94840.63;;;3.81;66.64
52957;BME280;38819;42.692;23.342;2023-02-04T03:59:05;94823.53;;;3.87;66.79
52957;BME280;38819;42.692;23.342;2023-02-04T04:01:31;94814.72;;;3.87;66.61
52957;BME280;38819;42.692;23.342;2023-02-04T04:03:56;94809.13;;;3.88;66.45
52957;BME280;38819;42.692;23.342;2023-02-04T04:06:22;94805.16;;;3.96;65.97
52957;BME280;38819;42.692;23.342;2023-02-04T04:08:47;94800.63;;;4.02;66.05
52957;BME280;38819;42.692;23.342;2023-02-04T04:11:13;94803.56;;;4.00;65.47
52957;BME280;38819;42.692;23.342;2023-02-04T04:13:38;94796.34;;;4.01;65.39
52957;BME280;38819;42.692;23.342;2023-02-04T04:16:04;94789.84;;;3.76;66.03
52957;BME280;38819;42.692;23.342;2023-02-04T04:18:30;94793.47;;;3.60;67.01
52957;BME280;38819;42.692;23.342;2023-02-04T04:20:57;94793.66;;;3.43;67.56
52957;BME280;38819;42.692;23.342;2023-02-04T04:23:23;94793.38;;;3.39;68.26
52957;BME280;38819;42.692;23.342;2023-02-04T04:25:49;94786.72;;;3.47;68.14
52957;BME280;38819;42.692;23.342;2023-02-04T04:28:14;94794.16;;;3.40;68.18
52957;BME280;38819;42.692;23.342;2023-02-04T04:30:40;94803.22;;;3.39;68.35
52957;BME280;38819;42.692;23.342;2023-02-04T04:33:05;94792.56;;;3.44;68.19
52957;BME280;38819;42.692;23.342;2023-02-04T04:35:30;94802.13;;;3.29;68.52
52957;BME280;38819;42.692;23.342;2023-02-04T04:37:56;94809.88;;;3.31;68.60
52957;BME280;38819;42.692;23.342;2023-02-04T04:40:21;94806.66;;;3.34;68.71
52957;BME280;38819;42.692;23.342;2023-02-04T04:42:47;94805.91;;;3.39;68.79
52957;BME280;38819;42.692;23.342;2023-02-04T04:45:12;94806.78;;;3.49;68.64
52957;BME280;38819;42.692;23.342;2023-02-04T04:47:38;94816.38;;;3.50;68.61
52957;BME280;38819;42.692;23.342;2023-02-04T04:50:04;94810.84;;;3.62;68.32
52957;BME280;38819;42.692;23.342;2023-02-04T04:52:29;94815.63;;;3.55;68.68
52957;BME280;38819;42.692;23.342;2023-02-04T04:54:55;94817.22;;;3.56;68.83
52957;BME280;38819;42.692;23.342;2023-02-04T04:57:20;94827.13;;;3.61;69.17
52957;BME280;38819;42.692;23.342;2023-02-04T04:59:45;94814.81;;;3.55;69.69
52957;BME280;38819;42.692;23.342;2023-02-04T05:02:11;94814.81;;;3.55;69.89
52957;BME280;38819;42.692;23.342;2023-02-04T05:04:36;94824.75;;;3.59;70.27
52957;BME280;38819;42.692;23.342;2023-02-04T05:07:02;94809.25;;;3.61;70.40
52957;BME280;38819;42.692;23.342;2023-02-04T05:09:27;94810.56;;;3.59;70.49
52957;BME280;38819;42.692;23.342;2023-02-04T05:11:53;94808.72;;;3.59;70.78
52957;BME280;38819;42.692;23.342;2023-02-04T05:14:18;94819.19;;;3.71;70.38
52957;BME280;38819;42.692;23.342;2023-02-04T05:16:44;94822.75;;;3.92;69.96
52957;BME280;38819;42.692;23.342;2023-02-04T05:19:09;94830.78;;;3.97;70.33
52957;BME280;38819;42.692;23.342;2023-02-04T05:21:34;94846.06;;;4.07;70.00
52957;BME280;38819;42.692;23.342;2023-02-04T05:24:00;94823.16;;;4.16;69.67
52957;BME280;38819;42.692;23.342;2023-02-04T05:26:25;94850.19;;;4.30;69.24
52957;BME280;38819;42.692;23.342;2023-02-04T05:28:51;94841.94;;;4.42;68.03
52957;BME280;38819;42.692;23.342;2023-02-04T05:31:17;94868.41;;;4.43;68.04
52957;BME280;38819;42.692;23.342;2023-02-04T05:33:42;94859.53;;;4.27;68.01
52957;BME280;38819;42.692;23.342;2023-02-04T05:36:08;94869.69;;;4.31;67.93
52957;BME280;38819;42.692;23.342;2023-02-04T05:38:33;94853.13;;;4.34;67.96
52957;BME280;38819;42.692;23.342;2023-02-04T05:40:58;94875.06;;;4.36;67.81
52957;BME280;38819;42.692;23.342;2023-02-04T05:43:24;94873.22;;;4.41;67.30
52957;BME280;38819;42.692;23.342;2023-02-04T05:45:49;94859.03;;;4.36;67.12
52957;BME280;38819;42.692;23.342;2023-02-04T05:48:14;94861.47;;;4.42;66.74
52957;BME280;38819;42.692;23.342;2023-02-04T05:50:40;94868.97;;;4.45;66.74
52957;BME280;38819;42.692;23.342;2023-02-04T05:53:05;94852.66;;;4.52;65.86
52957;BME280;38819;42.692;23.342;2023-02-04T05:55:31;94845.19;;;4.54;65.88
52957;BME280;38819;42.692;23.342;2023-02-04T05:57:56;94847.31;;;4.52;65.44
52957;BME280;38819;42.692;23.342;2023-02-04T06:00:22;94837.69;;;4.51;65.33
52957;BME280;38819;42.692;23.342;2023-02-04T06:02:47;94843.84;;;4.57;65.12
52957;BME280;38819;42.692;23.342;2023-02-04T06:05:12;94855.63;;;4.56;64.57
52957;BME280;38819;42.692;23.342;2023-02-04T06:07:38;94851.63;;;4.63;64.44
52957;BME280;38819;42.692;23.342;2023-02-04T06:10:04;94848.97;;;4.74;63.93
52957;BME280;38819;42.692;23.342;2023-02-04T06:12:29;94840.69;;;4.70;63.44
52957;BME280;38819;42.692;23.342;2023-02-04T06:14:55;94846.03;;;4.65;63.63
52957;BME280;38819;42.692;23.342;2023-02-04T06:17:20;94868.75;;;4.62;63.72
52957;BME280;38819;42.692;23.342;2023-02-04T06:19:45;94866.31;;;4.61;63.98
52957;BME280;38819;42.692;23.342;2023-02-04T06:22:11;94873.84;;;4.69;63.44
52957;BME280;38819;42.692;23.342;2023-02-04T06:24:36;94848.19;;;4.78;63.26
52957;BME280;38819;42.692;23.342;2023-02-04T06:27:02;94859.69;;;4.79;62.86
52957;BME280;38819;42.692;23.342;2023-02-04T06:29:27;94854.34;;;4.84;62.88
52957;BME280;38819;42.692;23.342;2023-02-04T06:31:53;94858.91;;;4.89;62.53
52957;BME280;38819;42.692;23.342;2023-02-04T06:34:18;94855.97;;;4.90;62.11
52957;BME280;38819;42.692;23.342;2023-02-04T06:36:43;94854.63;;;4.88;62.15
52957;BME280;38819;42.692;23.342;2023-02-04T06:39:09;94865.88;;;4.90;61.88
52957;BME280;38819;42.692;23.342;2023-02-04T06:41:34;94868.28;;;4.86;61.82
52957;BME280;38819;42.692;23.342;2023-02-04T06:43:59;94857.03;;;4.89;61.48
52957;BME280;38819;42.692;23.342;2023-02-04T06:46:25;94857.88;;;5.00;61.01
52957;BME280;38819;42.692;23.342;2023-02-04T06:48:50;94863.22;;;5.10;60.87
52957;BME280;38819;42.692;23.342;2023-02-04T06:51:16;94859.22;;;5.13;60.43
52957;BME280;38819;42.692;23.342;2023-02-04T06:53:41;94858.97;;;5.19;60.03
52957;BME280;38819;42.692;23.342;2023-02-04T06:56:09;94862.69;;;5.24;59.76
52957;BME280;38819;42.692;23.342;2023-02-04T06:58:35;94852.25;;;5.22;59.58
52957;BME280;38819;42.692;23.342;2023-02-04T07:01:00;94850.63;;;5.21;59.38
52957;BME280;38819;42.692;23.342;2023-02-04T07:03:26;94855.72;;;5.17;59.59
52957;BME280;38819;42.692;23.342;2023-02-04T07:05:51;94843.44;;;5.22;59.70
52957;BME280;38819;42.692;23.342;2023-02-04T07:08:18;94832.72;;;5.22;59.12
52957;BME280;38819;42.692;23.342;2023-02-04T07:10:43;94837.53;;;5.30;59.25
52957;BME280;38819;42.692;23.342;2023-02-04T07:13:09;94837.00;;;5.23;59.22
52957;BME280;38819;42.692;23.342;2023-02-04T07:15:34;94835.13;;;5.33;59.00
52957;BME280;38819;42.692;23.342;2023-02-04T07:17:59;94835.13;;;5.38;58.65
52957;BME280;38819;42.692;23.342;2023-02-04T07:20:25;94841.81;;;5.36;58.72
52957;BME280;38819;42.692;23.342;2023-02-04T07:22:50;94838.59;;;5.34;58.59
52957;BME280;38819;42.692;23.342;2023-02-04T07:25:16;94819.59;;;5.25;59.18
52957;BME280;38819;42.692;23.342;2023-02-04T07:27:42;94819.31;;;5.32;58.97
52957;BME280;38819;42.692;23.342;2023-02-04T07:30:08;94820.66;;;5.29;59.27
52957;BME280;38819;42.692;23.342;2023-02-04T07:32:34;94820.13;;;5.32;59.27
52957;BME280;38819;42.692;23.342;2023-02-04T07:35:00;94821.72;;;5.44;59.33
52957;BME280;38819;42.692;23.342;2023-02-04T07:37:25;94816.63;;;5.47;59.05
52957;BME280;38819;42.692;23.342;2023-02-04T07:39:51;94824.38;;;5.54;58.85
52957;BME280;38819;42.692;23.342;2023-02-04T07:42:16;94825.47;;;5.58;58.44
52957;BME280;38819;42.692;23.342;2023-02-04T07:44:42;94828.13;;;5.63;58.27
52957;BME280;38819;42.692;23.342;2023-02-04T07:47:07;94832.94;;;5.71;58.48
52957;BME280;38819;42.692;23.342;2023-02-04T07:49:32;94827.28;;;5.83;58.27
52957;BME280;38819;42.692;23.342;2023-02-04T07:51:58;94825.13;;;5.85;57.91
52957;BME280;38819;42.692;23.342;2023-02-04T07:54:23;94826.19;;;5.89;57.70
52957;BME280;38819;42.692;23.342;2023-02-04T07:56:49;94819.75;;;5.96;57.98
52957;BME280;38819;42.692;23.342;2023-02-04T07:59:14;94819.75;;;5.96;57.50
52957;BME280;38819;42.692;23.342;2023-02-04T08:01:39;94836.38;;;5.98;57.69
52957;BME280;38819;42.692;23.342;2023-02-04T08:04:05;94815.47;;;6.00;57.46
52957;BME280;38819;42.692;23.342;2023-02-04T08:06:30;94815.47;;;6.00;57.47
52957;BME280;38819;42.692;23.342;2023-02-04T08:08:56;94831.53;;;5.94;57.39
52957;BME280;38819;42.692;23.342;2023-02-04T08:11:21;94829.69;;;5.90;57.71
52957;BME280;38819;42.692;23.342;2023-02-04T08:13:47;94834.25;;;5.84;57.46
52957;BME280;38819;42.692;23.342;2023-02-04T08:16:12;94834.25;;;5.79;57.96
52957;BME280;38819;42.692;23.342;2023-02-04T08:18:37;94829.97;;;5.73;58.44
52957;BME280;38819;42.692;23.342;2023-02-04T08:21:03;94835.34;;;5.73;58.79
52957;BME280;38819;42.692;23.342;2023-02-04T08:23:30;94825.97;;;5.75;58.55
52957;BME280;38819;42.692;23.342;2023-02-04T08:25:57;94840.16;;;5.71;58.91
52957;BME280;38819;42.692;23.342;2023-02-04T08:28:22;94840.97;;;5.61;59.55
52957;BME280;38819;42.692;23.342;2023-02-04T08:30:49;94839.94;;;5.52;59.76
52957;BME280;38819;42.692;23.342;2023-02-04T08:33:14;94827.34;;;5.52;60.14
52957;BME280;38819;42.692;23.342;2023-02-04T08:35:39;94824.94;;;5.46;60.42
52957;BME280;38819;42.692;23.342;2023-02-04T08:38:05;94826.53;;;5.52;60.49
52957;BME280;38819;42.692;23.342;2023-02-04T08:40:30;94809.09;;;5.60;60.68
52957;BME280;38819;42.692;23.342;2023-02-04T08:42:56;94806.69;;;5.68;60.32
52957;BME280;38819;42.692;23.342;2023-02-04T08:45:21;94826.22;;;5.74;59.79
52957;BME280;38819;42.692;23.342;2023-02-04T08:47:47;94816.88;;;5.71;59.66
52957;BME280;38819;42.692;23.342;2023-02-04T08:50:12;94817.94;;;5.65;59.90
52957;BME280;38819;42.692;23.342;2023-02-04T08:52:38;94815.78;;;5.67;60.12
52957;BME280;38819;42.692;23.342;2023-02-04T08:55:03;94810.97;;;5.69;60.14
52957;BME280;38819;42.692;23.342;2023-02-04T08:57:29;94821.69;;;5.69;60.86
52957;BME280;38819;42.692;23.342;2023-02-04T08:59:54;94810.16;;;5.74;60.72
52957;BME280;38819;42.692;23.342;2023-02-04T09:02:20;94818.97;;;5.74;60.95
52957;BME280;38819;42.692;23.342;2023-02-04T09:04:45;94816.59;;;5.78;61.30
52957;BME280;38819;42.692;23.342;2023-02-04T09:07:10;94824.34;;;5.74;61.46
52957;BME280;38819;42.692;23.342;2023-02-04T09:09:36;94817.94;;;5.70;61.22
52957;BME280;38819;42.692;23.342;2023-02-04T09:12:01;94818.22;;;5.64;61.28
52957;BME280;38819;42.692;23.342;2023-02-04T09:14:27;94814.47;;;5.65;61.03
52957;BME280;38819;42.692;23.342;2023-02-04T09:16:52;94810.72;;;5.61;61.10
52957;BME280;38819;42.692;23.342;2023-02-04T09:19:18;94800.78;;;5.71;60.97
52957;BME280;38819;42.692;23.342;2023-02-04T09:21:49;94807.47;;;5.79;60.71
52957;BME280;38819;42.692;23.342;2023-02-04T09:24:15;94806.38;;;5.85;59.86
52957;BME280;38819;42.692;23.342;2023-02-04T09:26:40;94795.66;;;5.85;59.98
52957;BME280;38819;42.692;23.342;2023-02-04T09:29:06;94805.31;;;5.76;59.84
52957;BME280;38819;42.692;23.342;2023-02-04T09:31:31;94797.81;;;5.83;59.58
52957;BME280;38819;42.692;23.342;2023-02-04T09:33:57;94802.59;;;5.86;59.30
52957;BME280;38819;42.692;23.342;2023-02-04T09:36:22;94805.28;;;5.91;59.32
52957;BME280;38819;42.692;23.342;2023-02-04T09:38:52;94785.50;;;5.77;60.82
52957;BME280;38819;42.692;23.342;2023-02-04T09:41:18;94800.50;;;5.68;61.97
52957;BME280;38819;42.692;23.342;2023-02-04T09:43:44;94798.41;;;5.65;63.14
52957;BME280;38819;42.692;23.342;2023-02-04T09:46:23;94792.75;;;5.66;63.87
52957;BME280;38819;42.692;23.342;2023-02-04T09:48:53;94795.69;;;5.60;64.33
52957;BME280;38819;42.692;23.342;2023-02-04T09:51:22;94788.22;;;5.56;65.29
52957;BME280;38819;42.692;23.342;2023-02-04T09:53:48;94797.34;;;5.50;65.61
52957;BME280;38819;42.692;23.342;2023-02-04T09:56:14;94789.84;;;5.47;65.06
52957;BME280;38819;42.692;23.342;2023-02-04T09:58:41;94783.97;;;5.45;65.61
52957;BME280;38819;42.692;23.342;2023-02-04T10:01:15;94782.59;;;5.58;66.09
52957;BME280;38819;42.692;23.342;2023-02-04T10:03:43;94768.94;;;5.65;66.19
52957;BME280;38819;42.692;23.342;2023-02-04T10:06:16;94773.19;;;5.66;65.54
52957;BME280;38819;42.692;23.342;2023-02-04T10:08:43;94773.44;;;5.69;65.72
52957;BME280;38819;42.692;23.342;2023-02-04T10:11:09;94757.91;;;5.77;65.34
52957;BME280;38819;42.692;23.342;2023-02-04T10:13:38;94766.75;;;5.77;65.39
52957;BME280;38819;42.692;23.342;2023-02-04T10:16:16;94752.78;;;5.80;65.28
52957;BME280;38819;42.692;23.342;2023-02-04T10:18:42;94757.31;;;5.90;65.16
52957;BME280;38819;42.692;23.342;2023-02-04T10:21:12;94768.56;;;5.97;64.57
52957;BME280;38819;42.692;23.342;2023-02-04T10:23:39;94767.22;;;5.89;63.74
52957;BME280;38819;42.692;23.342;2023-02-04T10:26:05;94747.19;;;5.66;64.34
52957;BME280;38819;42.692;23.342;2023-02-04T10:28:34;94745.06;;;5.68;64.82
52957;BME280;38819;42.692;23.342;2023-02-04T10:31:00;94746.38;;;5.76;65.06
52957;BME280;38819;42.692;23.342;2023-02-04T10:33:26;94735.94;;;5.69;64.62
52957;BME280;38819;42.692;23.342;2023-02-04T10:35:53;94757.38;;;5.64;64.19
52957;BME280;38819;42.692;23.342;2023-02-04T10:38:19;94752.28;;;5.63;65.15
52957;BME280;38819;42.692;23.342;2023-02-04T10:40:45;94743.22;;;5.59;66.14
52957;BME280;38819;42.692;23.342;2023-02-04T10:45:44;94744.28;;;5.57;67.57
52957;BME280;38819;42.692;23.342;2023-02-04T10:48:18;94743.78;;;5.50;68.66
52957;BME280;38819;42.692;23.342;2023-02-04T10:50:45;94737.84;;;5.59;69.48
52957;BME280;38819;42.692;23.342;2023-02-04T10:53:19;94737.31;;;5.67;69.48
52957;BME280;38819;42.692;23.342;2023-02-04T10:56:11;94745.84;;;5.69;68.00
52957;BME280;38819;42.692;23.342;2023-02-04T10:58:39;94738.88;;;5.68;67.92
52957;BME280;38819;42.692;23.342;2023-02-04T11:01:09;94729.00;;;5.68;68.39
52957;BME280;38819;42.692;23.342;2023-02-04T11:03:37;94726.81;;;5.75;69.10
52957;BME280;38819;42.692;23.342;2023-02-04T11:06:11;94722.28;;;5.71;68.60
52957;BME280;38819;42.692;23.342;2023-02-04T11:08:38;94712.38;;;5.71;67.80
52957;BME280;38819;42.692;23.342;2023-02-04T11:11:18;94729.53;;;5.65;67.88
52957;BME280;38819;42.692;23.342;2023-02-04T11:13:58;94713.47;;;5.65;69.39
52957;BME280;38819;42.692;23.342;2023-02-04T11:16:30;94710.22;;;5.73;68.42
52957;BME280;38819;42.692;23.342;2023-02-04T11:19:14;94715.56;;;5.73;67.28
52957;BME280;38819;42.692;23.342;2023-02-04T11:21:44;94703.50;;;5.71;67.61
52957;BME280;38819;42.692;23.342;2023-02-04T11:34:09;94727.13;;;5.64;67.64
52957;BME280;38819;42.692;23.342;2023-02-04T11:39:27;94710.25;;;5.53;68.12
52957;BME280;38819;42.692;23.342;2023-02-04T11:41:57;94714.81;;;5.57;68.06
52957;BME280;38819;42.692;23.342;2023-02-04T11:44:23;94723.09;;;5.61;68.48
52957;BME280;38819;42.692;23.342;2023-02-04T11:46:51;94714.25;;;5.66;68.84
52957;BME280;38819;42.692;23.342;2023-02-04T12:01:35;94719.88;;;6.29;66.28
52957;BME280;38819;42.692;23.342;2023-02-04T12:04:03;94710.28;;;6.23;66.81
52957;BME280;38819;42.692;23.342;2023-02-04T12:06:34;94716.50;;;6.14;67.20
52957;BME280;38819;42.692;23.342;2023-02-04T12:09:07;94716.53;;;6.08;67.37
52957;BME280;38819;42.692;23.342;2023-02-04T12:11:53;94721.38;;;6.01;67.59
52957;BME280;38819;42.692;23.342;2023-02-04T12:14:19;94704.25;;;5.97;67.99
52957;BME280;38819;42.692;23.342;2023-02-04T12:16:46;94703.69;;;5.95;68.68
52957;BME280;38819;42.692;23.342;2023-02-04T12:19:12;94707.22;;;5.85;68.45
52957;BME280;38819;42.692;23.342;2023-02-04T12:21:38;94706.13;;;5.97;68.94
52957;BME280;38819;42.692;23.342;2023-02-04T12:24:04;94702.88;;;5.94;68.96
52957;BME280;38819;42.692;23.342;2023-02-04T12:26:29;94700.50;;;5.83;69.18
52957;BME280;38819;42.692;23.342;2023-02-04T12:28:55;94698.69;;;5.78;68.99
52957;BME280;38819;42.692;23.342;2023-02-04T12:31:20;94696.78;;;5.84;68.75
52957;BME280;38819;42.692;23.342;2023-02-04T12:33:46;94696.81;;;5.73;69.27
52957;BME280;38819;42.692;23.342;2023-02-04T12:36:12;94702.44;;;5.72;69.53
52957;BME280;38819;42.692;23.342;2023-02-04T12:38:37;94694.66;;;5.75;69.69
52957;BME280;38819;42.692;23.342;2023-02-04T12:41:02;94698.13;;;5.76;69.31
52957;BME280;38819;42.692;23.342;2023-02-04T12:43:28;94689.59;;;5.69;69.39
52957;BME280;38819;42.692;23.342;2023-02-04T12:45:53;94687.97;;;5.73;68.80
52957;BME280;38819;42.692;23.342;2023-02-04T12:48:19;94689.59;;;5.69;68.88
52957;BME280;38819;42.692;23.342;2023-02-04T12:50:44;94701.41;;;5.63;69.48
52957;BME280;38819;42.692;23.342;2023-02-04T12:53:09;94700.31;;;5.69;69.03
52957;BME280;38819;42.692;23.342;2023-02-04T12:55:35;94701.34;;;5.73;67.92
52957;BME280;38819;42.692;23.342;2023-02-04T12:58:01;94696.00;;;5.78;68.72
52957;BME280;38819;42.692;23.342;2023-02-04T13:00:26;94696.25;;;5.82;67.84
52957;BME280;38819;42.692;23.342;2023-02-04T13:02:52;94686.06;;;5.79;67.17
52957;BME280;38819;42.692;23.342;2023-02-04T13:05:19;94686.63;;;5.75;66.44
52957;BME280;38819;42.692;23.342;2023-02-04T13:07:45;94688.22;;;5.77;66.59
52957;BME280;38819;42.692;23.342;2023-02-04T13:10:12;94702.44;;;5.72;66.28
52957;BME280;38819;42.692;23.342;2023-02-04T13:12:38;94693.88;;;5.70;66.20
52957;BME280;38819;42.692;23.342;2023-02-04T13:15:04;94692.34;;;5.53;66.46
52957;BME280;38819;42.692;23.342;2023-02-04T13:17:29;94701.72;;;5.46;66.65
52957;BME280;38819;42.692;23.342;2023-02-04T13:19:55;94706.53;;;5.54;66.24
52957;BME280;38819;42.692;23.342;2023-02-04T13:22:20;94703.84;;;5.54;66.52
52957;BME280;38819;42.692;23.342;2023-02-04T13:24:46;94716.72;;;5.47;66.17
52957;BME280;38819;42.692;23.342;2023-02-04T13:27:11;94709.25;;;5.44;66.20
52957;BME280;38819;42.692;23.342;2023-02-04T13:29:37;94712.75;;;5.34;66.50